sensor_id;sensor_type;location;lat;lon;timestamp;pressure;altitude;pressure_sealevel;temperature;humidity
43707;BME280;61348;53.392;-6.248;2023-03-04T00:00:28;102638.59;;;5.97;73.41
43707;BME280;61348;53.392;-6.248;2023-03-04T00:02:57;102637.22;;;5.99;73.55
43707;BME280;61348;53.392;-6.248;2023-03-04T00:05:24;102641.88;;;5.99;73.65
43707;BME280;61348;53.392;-6.248;2023-03-04T00:07:50;102630.88;;;5.99;73.53
43707;BME280;61348;53.392;-6.248;2023-03-04T00:10:17;102630.06;;;5.98;73.61
43707;BME280;61348;53.392;-6.248;2023-03-04T00:12:44;102623.47;;;5.99;73.59
43707;BME280;61348;53.392;-6.248;2023-03-04T00:15:10;102623.47;;;5.99;73.66
43707;BME280;61348;53.392;-6.248;2023-03-04T00:17:37;102618.25;;;5.98;73.80
43707;BME280;61348;53.392;-6.248;2023-03-04T00:20:04;102630.88;;;5.99;73.69
43707;BME280;61348;53.392;-6.248;2023-03-04T00:22:32;102618.50;;;5.96;73.90
43707;BME280;61348;53.392;-6.248;2023-03-04T00:24:58;102613.81;;;5.92;73.70
43707;BME280;61348;53.392;-6.248;2023-03-04T00:27:25;102626.19;;;5.89;73.82
43707;BME280;61348;53.392;-6.248;2023-03-04T00:29:52;102621.53;;;5.90;74.03
43707;BME280;61348;53.392;-6.248;2023-03-04T00:32:18;102622.34;;;5.90;73.96
43707;BME280;61348;53.392;-6.248;2023-03-04T00:34:45;102625.91;;;5.91;73.94
43707;BME280;61348;53.392;-6.248;2023-03-04T00:37:12;102625.09;;;5.90;73.73
43707;BME280;61348;53.392;-6.248;2023-03-04T00:39:39;102614.09;;;5.90;73.80
43707;BME280;61348;53.392;-6.248;2023-03-04T00:42:05;102616.84;;;5.90;73.67
43707;BME280;61348;53.392;-6.248;2023-03-04T00:44:32;102610.53;;;5.90;73.83
43707;BME280;61348;53.392;-6.248;2023-03-04T00:46:59;102616.03;;;5.90;73.94
43707;BME280;61348;53.392;-6.248;2023-03-04T00:49:25;102613.00;;;5.91;73.82
43707;BME280;61348;53.392;-6.248;2023-03-04T00:51:53;102605.03;;;5.90;73.65
43707;BME280;61348;53.392;-6.248;2023-03-04T00:54:20;102610.53;;;5.90;73.73
43707;BME280;61348;53.392;-6.248;2023-03-04T00:56:49;102611.06;;;5.92;73.89
43707;BME280;61348;53.392;-6.248;2023-03-04T00:59:15;102608.84;;;5.89;73.61
43707;BME280;61348;53.392;-6.248;2023-03-04T01:01:42;102601.69;;;5.88;73.68
43707;BME280;61348;53.392;-6.248;2023-03-04T01:04:10;102597.31;;;5.87;73.67
43707;BME280;61348;53.392;-6.248;2023-03-04T01:06:36;102596.75;;;5.85;73.94
43707;BME280;61348;53.392;-6.248;2023-03-04T01:09:03;102600.56;;;5.84;73.92
43707;BME280;61348;53.392;-6.248;2023-03-04T01:11:30;102606.06;;;5.84;73.92
43707;BME280;61348;53.392;-6.248;2023-03-04T01:13:56;102604.38;;;5.83;73.79
43707;BME280;61348;53.392;-6.248;2023-03-04T01:16:23;102609.34;;;5.81;73.98
43707;BME280;61348;53.392;-6.248;2023-03-04T01:18:50;102607.44;;;5.81;73.82
43707;BME280;61348;53.392;-6.248;2023-03-04T01:21:16;102614.84;;;5.81;74.03
43707;BME280;61348;53.392;-6.248;2023-03-04T01:23:43;102616.75;;;5.80;73.96
43707;BME280;61348;53.392;-6.248;2023-03-04T01:26:10;102605.75;;;5.80;74.17
43707;BME280;61348;53.392;-6.248;2023-03-04T01:28:37;102619.50;;;5.80;73.92
43707;BME280;61348;53.392;-6.248;2023-03-04T01:31:03;102612.91;;;5.81;73.95
43707;BME280;61348;53.392;-6.248;2023-03-04T01:33:30;102619.25;;;5.82;73.76
43707;BME280;61348;53.392;-6.248;2023-03-04T01:35:57;102615.13;;;5.79;73.85
43707;BME280;61348;53.392;-6.248;2023-03-04T01:38:24;102619.78;;;5.79;73.88
43707;BME280;61348;53.392;-6.248;2023-03-04T01:40:51;102624.44;;;5.78;73.78
43707;BME280;61348;53.392;-6.248;2023-03-04T01:43:21;102621.44;;;5.80;73.85
43707;BME280;61348;53.392;-6.248;2023-03-04T01:45:50;102618.69;;;5.80;73.74
43707;BME280;61348;53.392;-6.248;2023-03-04T01:48:21;102612.09;;;5.81;73.55
43707;BME280;61348;53.392;-6.248;2023-03-04T01:50:50;102608.50;;;5.80;73.59
43707;BME280;61348;53.392;-6.248;2023-03-04T01:53:20;102618.69;;;5.80;73.53
43707;BME280;61348;53.392;-6.248;2023-03-04T01:55:48;102618.13;;;5.78;73.72
43707;BME280;61348;53.392;-6.248;2023-03-04T01:58:15;102609.88;;;5.78;73.50
43707;BME280;61348;53.392;-6.248;2023-03-04T02:00:42;102612.63;;;5.78;73.36
43707;BME280;61348;53.392;-6.248;2023-03-04T02:03:12;102613.16;;;5.75;73.37
43707;BME280;61348;53.392;-6.248;2023-03-04T02:05:43;102609.56;;;5.69;73.61
43707;BME280;61348;53.392;-6.248;2023-03-04T02:08:12;102604.88;;;5.70;73.56
43707;BME280;61348;53.392;-6.248;2023-03-04T02:10:41;102603.25;;;5.69;73.48
43707;BME280;61348;53.392;-6.248;2023-03-04T02:13:09;102597.75;;;5.69;73.65
43707;BME280;61348;53.392;-6.248;2023-03-04T02:15:36;102604.59;;;5.66;73.42
43707;BME280;61348;53.392;-6.248;2023-03-04T02:18:13;102603.22;;;5.64;73.75
43707;BME280;61348;53.392;-6.248;2023-03-04T02:20:47;102601.00;;;5.61;73.69
43707;BME280;61348;53.392;-6.248;2023-03-04T02:23:34;102602.09;;;5.60;73.79
43707;BME280;61348;53.392;-6.248;2023-03-04T02:26:18;102595.50;;;5.56;73.75
43707;BME280;61348;53.392;-6.248;2023-03-04T02:28:47;102591.06;;;5.54;73.91
43707;BME280;61348;53.392;-6.248;2023-03-04T02:31:35;102598.75;;;5.52;73.67
43707;BME280;61348;53.392;-6.248;2023-03-04T02:34:09;102587.78;;;5.52;74.16
43707;BME280;61348;53.392;-6.248;2023-03-04T02:36:36;102583.38;;;5.51;74.13
43707;BME280;61348;53.392;-6.248;2023-03-04T02:39:13;102582.81;;;5.49;74.08
43707;BME280;61348;53.392;-6.248;2023-03-04T02:41:41;102593.53;;;5.51;74.07
43707;BME280;61348;53.392;-6.248;2023-03-04T02:44:19;102583.63;;;5.50;74.46
43707;BME280;61348;53.392;-6.248;2023-03-04T02:46:46;102583.13;;;5.53;74.19
43707;BME280;61348;53.392;-6.248;2023-03-04T02:49:13;102583.38;;;5.51;74.42
43707;BME280;61348;53.392;-6.248;2023-03-04T02:51:40;102590.78;;;5.51;74.21
43707;BME280;61348;53.392;-6.248;2023-03-04T02:54:20;102582.81;;;5.49;74.39
43707;BME280;61348;53.392;-6.248;2023-03-04T02:56:49;102589.38;;;5.48;74.50
43707;BME280;61348;53.392;-6.248;2023-03-04T02:59:17;102587.16;;;5.45;74.48
43707;BME280;61348;53.392;-6.248;2023-03-04T03:01:44;102585.53;;;5.44;74.49
43707;BME280;61348;53.392;-6.248;2023-03-04T03:04:11;102586.59;;;5.38;74.07
43707;BME280;61348;53.392;-6.248;2023-03-04T03:06:39;102591.53;;;5.36;74.30
43707;BME280;61348;53.392;-6.248;2023-03-04T03:09:07;102588.78;;;5.36;74.67
43707;BME280;61348;53.392;-6.248;2023-03-04T03:11:34;102587.38;;;5.34;74.37
43707;BME280;61348;53.392;-6.248;2023-03-04T03:14:00;102590.13;;;5.34;74.76
43707;BME280;61348;53.392;-6.248;2023-03-04T03:16:27;102590.38;;;5.32;74.43
43707;BME280;61348;53.392;-6.248;2023-03-04T03:18:54;102584.88;;;5.32;74.49
43707;BME280;61348;53.392;-6.248;2023-03-04T03:21:21;102594.25;;;5.31;74.34
43707;BME280;61348;53.392;-6.248;2023-03-04T03:23:49;102588.44;;;5.28;74.16
43707;BME280;61348;53.392;-6.248;2023-03-04T03:26:16;102584.06;;;5.27;74.14
43707;BME280;61348;53.392;-6.248;2023-03-04T03:28:43;102583.22;;;5.26;74.58
43707;BME280;61348;53.392;-6.248;2023-03-04T03:31:09;102586.22;;;5.25;74.40
43707;BME280;61348;53.392;-6.248;2023-03-04T03:33:36;102582.63;;;5.24;74.44
43707;BME280;61348;53.392;-6.248;2023-03-04T03:36:03;102579.91;;;5.24;74.42
43707;BME280;61348;53.392;-6.248;2023-03-04T03:38:30;102579.34;;;5.22;74.44
43707;BME280;61348;53.392;-6.248;2023-03-04T03:40:57;102577.94;;;5.20;74.27
43707;BME280;61348;53.392;-6.248;2023-03-04T03:43:24;102574.09;;;5.16;74.44
43707;BME280;61348;53.392;-6.248;2023-03-04T03:45:50;102574.09;;;5.16;73.99
43707;BME280;61348;53.392;-6.248;2023-03-04T03:48:17;102574.66;;;5.18;74.31
43707;BME280;61348;53.392;-6.248;2023-03-04T03:50:58;102566.13;;;5.19;74.53
43707;BME280;61348;53.392;-6.248;2023-03-04T03:53:25;102566.97;;;5.20;74.46
43707;BME280;61348;53.392;-6.248;2023-03-04T03:55:52;102569.47;;;5.21;74.23
43707;BME280;61348;53.392;-6.248;2023-03-04T03:58:18;102573.28;;;5.20;74.39
43707;BME280;61348;53.392;-6.248;2023-03-04T04:00:45;102569.44;;;5.16;74.53
43707;BME280;61348;53.392;-6.248;2023-03-04T04:03:14;102563.94;;;5.16;74.53
43707;BME280;61348;53.392;-6.248;2023-03-04T04:05:41;102565.03;;;5.15;74.64
43707;BME280;61348;53.392;-6.248;2023-03-04T04:08:17;102561.72;;;5.13;74.40
43707;BME280;61348;53.392;-6.248;2023-03-04T04:10:44;102570.75;;;5.14;74.46
43707;BME280;61348;53.392;-6.248;2023-03-04T04:13:10;102566.09;;;5.14;74.11
43707;BME280;61348;53.392;-6.248;2023-03-04T04:15:37;102568.03;;;5.14;74.26
43707;BME280;61348;53.392;-6.248;2023-03-04T04:18:05;102562.25;;;5.10;74.49
43707;BME280;61348;53.392;-6.248;2023-03-04T04:20:33;102569.38;;;5.11;74.53
43707;BME280;61348;53.392;-6.248;2023-03-04T04:22:59;102572.13;;;5.11;74.48
43707;BME280;61348;53.392;-6.248;2023-03-04T04:25:26;102577.06;;;5.09;74.52
43707;BME280;61348;53.392;-6.248;2023-03-04T04:27:53;102576.22;;;5.09;74.67
43707;BME280;61348;53.392;-6.248;2023-03-04T04:30:19;102582.56;;;5.09;74.32
43707;BME280;61348;53.392;-6.248;2023-03-04T04:32:46;102565.25;;;5.09;74.31
43707;BME280;61348;53.392;-6.248;2023-03-04T04:35:13;102569.34;;;5.06;74.27
43707;BME280;61348;53.392;-6.248;2023-03-04T04:37:39;102571.25;;;5.06;74.52
43707;BME280;61348;53.392;-6.248;2023-03-04T04:40:07;102561.09;;;5.06;74.51
43707;BME280;61348;53.392;-6.248;2023-03-04T04:42:34;102575.44;;;5.08;74.67
43707;BME280;61348;53.392;-6.248;2023-03-04T04:45:00;102574.59;;;5.08;74.65
43707;BME280;61348;53.392;-6.248;2023-03-04T04:47:28;102571.25;;;5.06;74.62
43707;BME280;61348;53.392;-6.248;2023-03-04T04:49:55;102570.69;;;5.04;74.30
43707;BME280;61348;53.392;-6.248;2023-03-04T04:52:21;102564.97;;;5.05;74.58
43707;BME280;61348;53.392;-6.248;2023-03-04T04:54:48;102572.63;;;5.03;74.40
43707;BME280;61348;53.392;-6.248;2023-03-04T04:57:14;102578.38;;;5.02;74.67
43707;BME280;61348;53.392;-6.248;2023-03-04T04:59:41;102574.81;;;5.01;74.48
43707;BME280;61348;53.392;-6.248;2023-03-04T05:02:08;102576.47;;;5.02;74.62
43707;BME280;61348;53.392;-6.248;2023-03-04T05:04:34;102571.81;;;5.03;74.67
43707;BME280;61348;53.392;-6.248;2023-03-04T05:07:01;102576.47;;;5.02;74.75
43707;BME280;61348;53.392;-6.248;2023-03-04T05:09:28;102584.16;;;5.00;74.42
43707;BME280;61348;53.392;-6.248;2023-03-04T05:11:55;102571.50;;;4.99;74.68
43707;BME280;61348;53.392;-6.248;2023-03-04T05:14:21;102577.81;;;5.00;74.48
43707;BME280;61348;53.392;-6.248;2023-03-04T05:16:48;102577.28;;;4.98;74.69
43707;BME280;61348;53.392;-6.248;2023-03-04T05:19:15;102575.31;;;4.98;74.45
43707;BME280;61348;53.392;-6.248;2023-03-04T05:21:41;102583.03;;;5.01;74.59
43707;BME280;61348;53.392;-6.248;2023-03-04T05:24:08;102578.66;;;5.00;74.48
43707;BME280;61348;53.392;-6.248;2023-03-04T05:26:34;102579.72;;;4.99;74.54
43707;BME280;61348;53.392;-6.248;2023-03-04T05:29:02;102570.94;;;4.97;74.52
43707;BME280;61348;53.392;-6.248;2023-03-04T05:31:29;102580.81;;;4.98;74.77
43707;BME280;61348;53.392;-6.248;2023-03-04T05:33:56;102583.56;;;4.98;74.82
43707;BME280;61348;53.392;-6.248;2023-03-04T05:36:22;102590.16;;;4.97;74.34
43707;BME280;61348;53.392;-6.248;2023-03-04T05:38:49;102589.56;;;4.95;74.60
43707;BME280;61348;53.392;-6.248;2023-03-04T05:41:16;102586.81;;;4.95;74.51
43707;BME280;61348;53.392;-6.248;2023-03-04T05:43:45;102584.34;;;4.93;74.74
43707;BME280;61348;53.392;-6.248;2023-03-04T05:46:13;102587.94;;;4.94;74.46
43707;BME280;61348;53.392;-6.248;2023-03-04T05:48:41;102590.69;;;4.94;74.33
43707;BME280;61348;53.392;-6.248;2023-03-04T05:51:08;102589.00;;;4.93;74.57
43707;BME280;61348;53.392;-6.248;2023-03-04T05:53:35;102586.53;;;4.91;74.34
43707;BME280;61348;53.392;-6.248;2023-03-04T05:56:09;102588.72;;;4.89;74.34
43707;BME280;61348;53.392;-6.248;2023-03-04T05:58:36;102578.00;;;4.88;74.11
43707;BME280;61348;53.392;-6.248;2023-03-04T06:01:03;102591.72;;;4.88;74.27
43707;BME280;61348;53.392;-6.248;2023-03-04T06:03:30;102584.59;;;4.87;74.36
43707;BME280;61348;53.392;-6.248;2023-03-04T06:06:00;102586.22;;;4.88;74.01
43707;BME280;61348;53.392;-6.248;2023-03-04T06:08:26;102587.91;;;4.89;73.79
43707;BME280;61348;53.392;-6.248;2023-03-04T06:10:55;102596.13;;;4.89;74.04
43707;BME280;61348;53.392;-6.248;2023-03-04T06:13:22;102590.09;;;4.87;74.15
43707;BME280;61348;53.392;-6.248;2023-03-04T06:15:58;102587.34;;;4.87;73.69
43707;BME280;61348;53.392;-6.248;2023-03-04T06:18:27;102588.97;;;4.88;73.91
43707;BME280;61348;53.392;-6.248;2023-03-04T06:20:59;102594.22;;;4.89;74.08
43707;BME280;61348;53.392;-6.248;2023-03-04T06:23:27;102594.22;;;4.89;74.02
43707;BME280;61348;53.392;-6.248;2023-03-04T06:25:55;102605.72;;;4.86;73.80
43707;BME280;61348;53.392;-6.248;2023-03-04T06:28:22;102601.59;;;4.84;73.96
43707;BME280;61348;53.392;-6.248;2023-03-04T06:30:54;102598.25;;;4.82;73.67
43707;BME280;61348;53.392;-6.248;2023-03-04T06:33:21;102599.09;;;4.82;73.78
43707;BME280;61348;53.392;-6.248;2023-03-04T06:35:52;102598.25;;;4.82;73.40
43707;BME280;61348;53.392;-6.248;2023-03-04T06:38:20;102602.09;;;4.81;73.72
43707;BME280;61348;53.392;-6.248;2023-03-04T06:40:46;102591.97;;;4.81;73.43
43707;BME280;61348;53.392;-6.248;2023-03-04T06:43:13;102595.25;;;4.83;73.37
43707;BME280;61348;53.392;-6.248;2023-03-04T06:45:40;102591.13;;;4.81;73.50
43707;BME280;61348;53.392;-6.248;2023-03-04T06:48:07;102592.19;;;4.80;73.46
43707;BME280;61348;53.392;-6.248;2023-03-04T06:50:33;102597.44;;;4.81;73.45
43707;BME280;61348;53.392;-6.248;2023-03-04T06:53:00;102593.88;;;4.81;73.32
43707;BME280;61348;53.392;-6.248;2023-03-04T06:55:27;102603.69;;;4.77;73.36
43707;BME280;61348;53.392;-6.248;2023-03-04T06:57:53;102600.94;;;4.77;73.36
43707;BME280;61348;53.392;-6.248;2023-03-04T07:00:20;102602.88;;;4.76;73.24
43707;BME280;61348;53.392;-6.248;2023-03-04T07:02:50;102594.66;;;4.76;73.27
43707;BME280;61348;53.392;-6.248;2023-03-04T07:05:19;102600.16;;;4.76;73.41
43707;BME280;61348;53.392;-6.248;2023-03-04T07:07:46;102596.56;;;4.76;73.29
43707;BME280;61348;53.392;-6.248;2023-03-04T07:10:14;102599.56;;;4.74;73.02
43707;BME280;61348;53.392;-6.248;2023-03-04T07:12:40;102595.41;;;4.72;73.31
43707;BME280;61348;53.392;-6.248;2023-03-04T07:15:08;102601.47;;;4.74;73.00
43707;BME280;61348;53.392;-6.248;2023-03-04T07:17:35;102597.34;;;4.71;73.18
43707;BME280;61348;53.392;-6.248;2023-03-04T07:20:02;102589.38;;;4.70;72.99
43707;BME280;61348;53.392;-6.248;2023-03-04T07:22:29;102596.53;;;4.71;73.35
43707;BME280;61348;53.392;-6.248;2023-03-04T07:24:55;102593.78;;;4.71;72.92
43707;BME280;61348;53.392;-6.248;2023-03-04T07:27:22;102599.00;;;4.72;72.96
43707;BME280;61348;53.392;-6.248;2023-03-04T07:29:49;102595.97;;;4.74;73.29
43707;BME280;61348;53.392;-6.248;2023-03-04T07:32:16;102599.56;;;4.74;73.33
43707;BME280;61348;53.392;-6.248;2023-03-04T07:34:43;102594.91;;;4.75;72.97
43707;BME280;61348;53.392;-6.248;2023-03-04T07:37:09;102604.81;;;4.76;73.08
43707;BME280;61348;53.392;-6.248;2023-03-04T07:39:36;102603.13;;;4.75;73.14
43707;BME280;61348;53.392;-6.248;2023-03-04T07:42:03;102603.97;;;4.75;72.91
43707;BME280;61348;53.392;-6.248;2023-03-04T07:44:29;102614.13;;;4.75;73.05
43707;BME280;61348;53.392;-6.248;2023-03-04T07:46:56;102600.41;;;4.75;72.94
43707;BME280;61348;53.392;-6.248;2023-03-04T07:49:23;102603.97;;;4.75;72.90
43707;BME280;61348;53.392;-6.248;2023-03-04T07:51:49;102605.91;;;4.80;72.87
43707;BME280;61348;53.392;-6.248;2023-03-04T07:54:16;102611.41;;;4.80;72.88
43707;BME280;61348;53.392;-6.248;2023-03-04T07:56:45;102604.84;;;4.81;73.06
43707;BME280;61348;53.392;-6.248;2023-03-04T07:59:12;102606.47;;;4.82;72.97
43707;BME280;61348;53.392;-6.248;2023-03-04T08:01:39;102618.03;;;4.84;72.83
43707;BME280;61348;53.392;-6.248;2023-03-04T08:04:06;102618.84;;;4.84;72.82
43707;BME280;61348;53.392;-6.248;2023-03-04T08:06:33;102618.03;;;4.84;73.03
43707;BME280;61348;53.392;-6.248;2023-03-04T08:09:03;102619.13;;;4.83;72.79
43707;BME280;61348;53.392;-6.248;2023-03-04T08:11:31;102621.88;;;4.83;73.13
43707;BME280;61348;53.392;-6.248;2023-03-04T08:13:58;102625.16;;;4.85;72.78
43707;BME280;61348;53.392;-6.248;2023-03-04T08:16:25;102628.50;;;4.87;72.60
43707;BME280;61348;53.392;-6.248;2023-03-04T08:18:54;102633.44;;;4.90;72.98
43707;BME280;61348;53.392;-6.248;2023-03-04T08:21:22;102632.63;;;4.89;72.81
43707;BME280;61348;53.392;-6.248;2023-03-04T08:23:50;102633.44;;;4.90;73.05
43707;BME280;61348;53.392;-6.248;2023-03-04T08:26:29;102634.00;;;4.87;72.49
43707;BME280;61348;53.392;-6.248;2023-03-04T08:28:56;102636.16;;;4.85;72.64
43707;BME280;61348;53.392;-6.248;2023-03-04T08:31:23;102641.63;;;4.85;72.73
43707;BME280;61348;53.392;-6.248;2023-03-04T08:33:50;102641.41;;;4.86;72.63
43707;BME280;61348;53.392;-6.248;2023-03-04T08:36:18;102637.28;;;4.89;72.72
43707;BME280;61348;53.392;-6.248;2023-03-04T08:38:45;102635.63;;;4.88;72.60
43707;BME280;61348;53.392;-6.248;2023-03-04T08:41:12;102630.97;;;4.88;72.75
43707;BME280;61348;53.392;-6.248;2023-03-04T08:43:41;102629.91;;;4.89;72.52
43707;BME280;61348;53.392;-6.248;2023-03-04T08:46:08;102623.63;;;4.94;72.80
43707;BME280;61348;53.392;-6.248;2023-03-04T08:48:35;102621.94;;;4.93;72.67
43707;BME280;61348;53.392;-6.248;2023-03-04T08:51:10;102623.63;;;4.94;72.40
43707;BME280;61348;53.392;-6.248;2023-03-04T08:53:37;102617.28;;;4.93;72.81
43707;BME280;61348;53.392;-6.248;2023-03-04T08:56:05;102619.75;;;4.95;72.46
43707;BME280;61348;53.392;-6.248;2023-03-04T08:58:33;102625.25;;;4.95;72.30
43707;BME280;61348;53.392;-6.248;2023-03-04T09:01:00;102624.44;;;4.95;72.29
43707;BME280;61348;53.392;-6.248;2023-03-04T09:03:27;102618.97;;;4.95;72.37
43707;BME280;61348;53.392;-6.248;2023-03-04T09:05:54;102624.72;;;4.98;72.38
43707;BME280;61348;53.392;-6.248;2023-03-04T09:08:21;102617.66;;;5.02;72.16
43707;BME280;61348;53.392;-6.248;2023-03-04T09:10:51;102616.53;;;5.03;71.93
43707;BME280;61348;53.392;-6.248;2023-03-04T09:13:18;102622.56;;;5.00;72.14
43707;BME280;61348;53.392;-6.248;2023-03-04T09:15:47;102618.47;;;5.03;72.00
43707;BME280;61348;53.392;-6.248;2023-03-04T09:18:14;102619.88;;;5.05;71.78
43707;BME280;61348;53.392;-6.248;2023-03-04T09:20:43;102616.28;;;5.05;71.93
43707;BME280;61348;53.392;-6.248;2023-03-04T09:23:11;102606.38;;;5.04;71.80
43707;BME280;61348;53.392;-6.248;2023-03-04T09:25:39;102610.53;;;5.06;71.65
43707;BME280;61348;53.392;-6.248;2023-03-04T09:28:06;102611.13;;;5.08;71.55
43707;BME280;61348;53.392;-6.248;2023-03-04T09:30:34;102618.22;;;5.09;71.49
43707;BME280;61348;53.392;-6.248;2023-03-04T09:33:01;102621.50;;;5.06;71.40
43707;BME280;61348;53.392;-6.248;2023-03-04T09:35:28;102618.00;;;5.11;71.66
43707;BME280;61348;53.392;-6.248;2023-03-04T09:37:56;102619.94;;;5.15;71.53
43707;BME280;61348;53.392;-6.248;2023-03-04T09:40:47;102614.75;;;5.19;71.43
43707;BME280;61348;53.392;-6.248;2023-03-04T09:43:21;102626.03;;;5.22;71.12
43707;BME280;61348;53.392;-6.248;2023-03-04T09:45:53;102615.03;;;5.22;71.04
43707;BME280;61348;53.392;-6.248;2023-03-04T09:48:24;102627.69;;;5.23;71.18
43707;BME280;61348;53.392;-6.248;2023-03-04T09:56:24;102627.66;;;5.18;70.79
43707;BME280;61348;53.392;-6.248;2023-03-04T10:01:55;102624.63;;;5.20;70.56
43707;BME280;61348;53.392;-6.248;2023-03-04T10:04:34;102629.28;;;5.19;70.40
43707;BME280;61348;53.392;-6.248;2023-03-04T10:07:14;102623.56;;;5.21;70.39
43707;BME280;61348;53.392;-6.248;2023-03-04T10:09:50;102623.28;;;5.22;70.20
43707;BME280;61348;53.392;-6.248;2023-03-04T10:12:21;102621.09;;;5.24;70.34
43707;BME280;61348;53.392;-6.248;2023-03-04T10:14:57;102617.81;;;5.27;69.90
43707;BME280;61348;53.392;-6.248;2023-03-04T10:17:37;102616.19;;;5.26;70.00
43707;BME280;61348;53.392;-6.248;2023-03-04T10:20:14;102627.16;;;5.26;69.75
43707;BME280;61348;53.392;-6.248;2023-03-04T10:22:52;102616.75;;;5.28;70.27
43707;BME280;61348;53.392;-6.248;2023-03-04T10:25:24;102613.47;;;5.31;69.85
43707;BME280;61348;53.392;-6.248;2023-03-04T10:27:58;102615.09;;;5.32;69.90
43707;BME280;61348;53.392;-6.248;2023-03-04T10:33:19;102620.34;;;5.34;69.89
43707;BME280;61348;53.392;-6.248;2023-03-04T10:35:50;102615.09;;;5.32;69.77
43707;BME280;61348;53.392;-6.248;2023-03-04T10:38:20;102618.69;;;5.33;69.49
43707;BME280;61348;53.392;-6.248;2023-03-04T10:40:47;102615.41;;;5.36;69.77
43707;BME280;61348;53.392;-6.248;2023-03-04T10:43:18;102609.09;;;5.35;69.64
43707;BME280;61348;53.392;-6.248;2023-03-04T10:45:46;102605.50;;;5.35;69.55
43707;BME280;61348;53.392;-6.248;2023-03-04T10:48:26;102603.59;;;5.35;69.36
43707;BME280;61348;53.392;-6.248;2023-03-04T10:53:46;102595.09;;;5.37;69.42
43707;BME280;61348;53.392;-6.248;2023-03-04T10:56:34;102592.06;;;5.38;69.24
43707;BME280;61348;53.392;-6.248;2023-03-04T10:59:35;102592.38;;;5.42;69.33
43707;BME280;61348;53.392;-6.248;2023-03-04T11:04:55;102584.47;;;5.50;69.34
43707;BME280;61348;53.392;-6.248;2023-03-04T11:07:24;102589.97;;;5.50;69.05
43707;BME280;61348;53.392;-6.248;2023-03-04T11:09:52;102578.41;;;5.53;69.18
43707;BME280;61348;53.392;-6.248;2023-03-04T11:12:31;102586.13;;;5.57;69.34
43707;BME280;61348;53.392;-6.248;2023-03-04T11:14:58;102590.25;;;5.59;69.09
43707;BME280;61348;53.392;-6.248;2023-03-04T11:17:56;102585.34;;;5.61;69.17
43707;BME280;61348;53.392;-6.248;2023-03-04T11:22:56;102579.56;;;5.63;68.73
43707;BME280;61348;53.392;-6.248;2023-03-04T11:25:28;102583.16;;;5.63;68.83
43707;BME280;61348;53.392;-6.248;2023-03-04T11:28:00;102575.47;;;5.65;69.14
43707;BME280;61348;53.392;-6.248;2023-03-04T11:30:42;102576.31;;;5.66;68.47
43707;BME280;61348;53.392;-6.248;2023-03-04T11:33:27;102580.44;;;5.68;68.55
43707;BME280;61348;53.392;-6.248;2023-03-04T11:38:43;102579.38;;;5.74;68.51
43707;BME280;61348;53.392;-6.248;2023-03-04T11:41:16;102573.03;;;5.74;68.66
43707;BME280;61348;53.392;-6.248;2023-03-04T11:43:45;102574.13;;;5.78;68.72
43707;BME280;61348;53.392;-6.248;2023-03-04T12:12:26;102558.34;;;6.05;68.10
43707;BME280;61348;53.392;-6.248;2023-03-04T12:14:24;102553.38;;;6.12;68.32
43707;BME280;61348;53.392;-6.248;2023-03-04T12:22:27;102552.03;;;6.14;68.16
43707;BME280;61348;53.392;-6.248;2023-03-04T12:41:37;102547.66;;;6.24;67.39
43707;BME280;61348;53.392;-6.248;2023-03-04T12:44:15;102549.84;;;6.22;67.34
43707;BME280;61348;53.392;-6.248;2023-03-04T12:46:55;102541.84;;;6.20;67.38
43707;BME280;61348;53.392;-6.248;2023-03-04T12:55:16;102535.28;;;6.31;67.16
43707;BME280;61348;53.392;-6.248;2023-03-04T12:57:44;102536.13;;;6.37;67.12
43707;BME280;61348;53.392;-6.248;2023-03-04T13:06:18;102513.84;;;6.48;66.78
43707;BME280;61348;53.392;-6.248;2023-03-04T13:09:09;102514.41;;;6.45;66.59
43707;BME280;61348;53.392;-6.248;2023-03-04T13:16:48;102503.38;;;6.50;66.68
43707;BME280;61348;53.392;-6.248;2023-03-04T13:19:57;102492.38;;;6.50;66.50
43707;BME280;61348;53.392;-6.248;2023-03-04T13:35:46;102484.41;;;6.64;66.05
43707;BME280;61348;53.392;-6.248;2023-03-04T13:41:20;102472.81;;;6.77;66.16
43707;BME280;61348;53.392;-6.248;2023-03-04T13:55:35;102456.56;;;6.81;65.82
43707;BME280;61348;53.392;-6.248;2023-03-04T13:58:17;102447.22;;;6.82;65.81
43707;BME280;61348;53.392;-6.248;2023-03-04T14:00:49;102450.50;;;6.84;65.84
43707;BME280;61348;53.392;-6.248;2023-03-04T14:03:26;102450.78;;;6.82;65.40
43707;BME280;61348;53.392;-6.248;2023-03-04T14:06:26;102451.63;;;6.78;65.50
43707;BME280;61348;53.392;-6.248;2023-03-04T14:08:54;102446.66;;;6.80;65.78
43707;BME280;61348;53.392;-6.248;2023-03-04T14:11:36;102456.00;;;6.84;65.25
43707;BME280;61348;53.392;-6.248;2023-03-04T14:14:06;102449.69;;;6.78;65.32
43707;BME280;61348;53.392;-6.248;2023-03-04T14:16:39;102443.63;;;6.76;65.55
43707;BME280;61348;53.392;-6.248;2023-03-04T14:19:16;102446.66;;;6.80;65.50
43707;BME280;61348;53.392;-6.248;2023-03-04T14:21:46;102440.03;;;6.81;65.18
43707;BME280;61348;53.392;-6.248;2023-03-04T14:24:16;102440.03;;;6.81;65.23
43707;BME280;61348;53.392;-6.248;2023-03-04T14:26:43;102433.97;;;6.84;65.45
43707;BME280;61348;53.392;-6.248;2023-03-04T14:29:22;102442.53;;;6.82;65.23
43707;BME280;61348;53.392;-6.248;2023-03-04T14:31:50;102429.63;;;6.78;64.97
43707;BME280;61348;53.392;-6.248;2023-03-04T14:34:25;102427.41;;;6.80;65.22
43707;BME280;61348;53.392;-6.248;2023-03-04T14:36:54;102438.41;;;6.80;65.01
43707;BME280;61348;53.392;-6.248;2023-03-04T14:39:25;102424.09;;;6.72;65.12
43707;BME280;61348;53.392;-6.248;2023-03-04T14:41:55;102427.44;;;6.69;65.28
43707;BME280;61348;53.392;-6.248;2023-03-04T14:44:34;102429.06;;;6.70;65.04
43707;BME280;61348;53.392;-6.248;2023-03-04T14:47:19;102419.44;;;6.68;64.82
43707;BME280;61348;53.392;-6.248;2023-03-04T14:49:47;102421.91;;;6.69;64.74
43707;BME280;61348;53.392;-6.248;2023-03-04T14:52:42;102410.34;;;6.72;64.72
43707;BME280;61348;53.392;-6.248;2023-03-04T14:55:16;102410.34;;;6.72;64.80
43707;BME280;61348;53.392;-6.248;2023-03-04T14:57:46;102410.91;;;6.74;64.82